Time;durP1;ratioP1;P1;durP2;ratioP2;P2;SDS_P1;SDS_P2;PMS_P1;PMS_P2;Temp;Humidity;BMP_temperature;BMP_pressure;BME280_temperature;BME280_humidity;BME280_pressure;Samples;Min_cycle;Max_cycle;Signal;HPM_P1;HPM_P2
2022/11/23 00:01:18;;;;;;;3.37;2.00;;;21.70;79.90;;;;;;5002006;28;20473;-75
2022/11/23 00:03:46;;;;;;;3.60;2.73;;;21.70;79.70;;;;;;5001959;28;20467;-75
2022/11/23 00:06:13;;;;;;;4.00;2.60;;;21.70;79.60;;;;;;5006462;28;20817;-76
2022/11/23 00:08:40;;;;;;;3.67;2.53;;;21.60;79.80;;;;;;4988083;28;20464;-75
2022/11/23 00:11:11;;;;;;;4.03;2.97;;;21.70;79.80;;;;;;4993565;28;20460;-75
2022/11/23 00:13:39;;;;;;;5.03;3.13;;;21.70;79.40;;;;;;4996657;28;20467;-75
2022/11/23 00:16:06;;;;;;;5.60;2.70;;;21.70;79.30;;;;;;5004723;28;20511;-75
2022/11/23 00:18:35;;;;;;;5.67;2.20;;;21.70;79.30;;;;;;4992916;28;20471;-75
2022/11/23 00:21:08;;;;;;;4.27;2.37;;;21.60;79.20;;;;;;5010532;28;20494;-75
2022/11/23 00:23:36;;;;;;;5.25;3.05;;;21.60;79.40;;;;;;4993778;28;20471;-75
2022/11/23 00:26:03;;;;;;;2.93;2.63;;;21.50;79.40;;;;;;4990197;28;20989;-75
2022/11/23 00:28:30;;;;;;;4.97;2.30;;;21.50;79.40;;;;;;4994568;28;20451;-75
2022/11/23 00:30:57;;;;;;;4.90;2.60;;;21.50;79.40;;;;;;4993578;28;20460;-75
2022/11/23 00:33:25;;;;;;;2.80;2.30;;;21.50;79.40;;;;;;4993888;28;20201;-76
2022/11/23 00:36:00;;;;;;;4.78;2.47;;;21.40;79.20;;;;;;5003086;28;20581;-75
2022/11/23 00:38:27;;;;;;;5.85;3.45;;;21.40;79.10;;;;;;4993123;28;20196;-75
2022/11/23 00:40:59;;;;;;;3.20;2.38;;;21.40;79.40;;;;;;4985514;28;20209;-75
2022/11/23 00:43:26;;;;;;;6.68;2.55;;;21.40;79.70;;;;;;4994199;28;20201;-75
2022/11/23 00:46:03;;;;;;;2.63;1.83;;;21.40;79.70;;;;;;4995264;28;20220;-75
2022/11/23 00:48:30;;;;;;;5.80;3.15;;;21.50;79.50;;;;;;4993421;28;20966;-75
2022/11/23 00:50:57;;;;;;;5.90;2.33;;;21.50;79.40;;;;;;5003463;28;20645;-75
2022/11/23 00:53:25;;;;;;;3.50;2.53;;;21.40;79.40;;;;;;4990067;28;20938;-75
2022/11/23 00:55:52;;;;;;;3.53;2.40;;;21.40;79.40;;;;;;4992893;28;20197;-75
2022/11/23 00:58:19;;;;;;;2.22;1.90;;;21.40;79.50;;;;;;4994780;28;20488;-75
2022/11/23 01:00:46;;;;;;;2.90;1.90;;;21.30;79.50;;;;;;5005363;28;20201;-75
2022/11/23 01:03:14;;;;;;;5.30;2.88;;;21.30;79.50;;;;;;4997855;28;20210;-75
2022/11/23 01:05:41;;;;;;;2.63;2.05;;;21.30;79.50;;;;;;5001881;28;20676;-74
2022/11/23 01:08:08;;;;;;;4.43;1.90;;;21.30;79.60;;;;;;4993796;28;20193;-75
2022/11/23 01:10:36;;;;;;;2.22;1.75;;;21.30;79.90;;;;;;4996581;28;20212;-75
2022/11/23 01:13:03;;;;;;;3.58;2.20;;;21.30;79.80;;;;;;5000504;28;20197;-75
2022/11/23 01:15:29;;;;;;;2.17;1.75;;;21.40;79.60;;;;;;4992729;28;20216;-75
2022/11/23 01:17:56;;;;;;;8.55;2.13;;;21.30;79.50;;;;;;4993653;28;20201;-74
2022/11/23 01:20:23;;;;;;;2.70;2.15;;;21.30;79.90;;;;;;4994108;28;20205;-76
2022/11/23 01:22:51;;;;;;;3.65;2.00;;;21.30;80.00;;;;;;4995347;28;20571;-75
2022/11/23 01:25:18;;;;;;;2.40;2.20;;;21.40;79.80;;;;;;4993926;28;20240;-75
2022/11/23 01:27:46;;;;;;;3.30;2.30;;;21.30;79.60;;;;;;4996046;28;20455;-74
2022/11/23 01:30:14;;;;;;;3.72;2.20;;;21.30;79.60;;;;;;4992674;28;20444;-74
2022/11/23 01:32:40;;;;;;;3.75;2.40;;;21.30;79.60;;;;;;4996826;28;20216;-75
2022/11/23 01:35:07;;;;;;;3.57;2.13;;;21.30;79.80;;;;;;5001900;28;20205;-75
2022/11/23 01:37:34;;;;;;;3.08;2.10;;;21.40;79.50;;;;;;4995541;28;20467;-74
2022/11/23 01:40:01;;;;;;;3.40;1.70;;;21.50;79.10;;;;;;4990446;28;20197;-75
2022/11/23 01:42:43;;;;;;;2.20;1.85;;;21.50;79.00;;;;;;5009587;28;20211;-75
2022/11/23 01:45:34;;;;;;;4.28;1.98;;;21.50;79.00;;;;;;4994073;28;20197;-75
2022/11/23 01:48:02;;;;;;;2.10;1.90;;;21.40;79.10;;;;;;4999250;28;20200;-75
2022/11/23 01:50:29;;;;;;;1.85;1.55;;;21.40;79.30;;;;;;4993612;28;20456;-74
2022/11/23 01:52:57;;;;;;;3.10;2.10;;;21.30;79.30;;;;;;4990284;28;20638;-75
2022/11/23 01:55:24;;;;;;;1.88;1.52;;;21.30;79.40;;;;;;4986373;28;20204;-75
2022/11/23 01:57:51;;;;;;;2.60;2.03;;;21.30;79.50;;;;;;4993210;28;20212;-75
2022/11/23 02:00:18;;;;;;;3.67;1.98;;;21.20;79.60;;;;;;5001775;28;20220;-75
2022/11/23 02:02:53;;;;;;;2.22;1.42;;;21.30;79.80;;;;;;4998065;28;20700;-75
2022/11/23 02:05:23;;;;;;;1.90;1.40;;;21.40;79.40;;;;;;5002208;28;20205;-75
2022/11/23 02:07:50;;;;;;;3.88;1.90;;;21.40;79.00;;;;;;4994104;28;20808;-74
2022/11/23 02:10:18;;;;;;;1.80;1.55;;;21.40;78.90;;;;;;4991891;28;20201;-75
2022/11/23 02:12:44;;;;;;;5.40;2.15;;;21.40;79.00;;;;;;4993862;28;20201;-75
2022/11/23 02:15:11;;;;;;;2.25;1.85;;;21.30;79.10;;;;;;4990401;28;20225;-75
2022/11/23 02:17:38;;;;;;;2.10;1.45;;;21.30;79.30;;;;;;4994987;28;20691;-75
2022/11/23 02:20:10;;;;;;;2.40;2.10;;;21.20;79.30;;;;;;4996897;28;20204;-75
2022/11/23 02:22:45;;;;;;;4.05;1.90;;;21.20;79.50;;;;;;4987788;28;20474;-75
2022/11/23 02:25:19;;;;;;;4.72;2.00;;;21.20;79.50;;;;;;4988909;28;20249;-75
2022/11/23 02:27:47;;;;;;;3.45;1.73;;;21.10;79.70;;;;;;4987726;28;20656;-75
2022/11/23 02:30:14;;;;;;;2.47;1.47;;;21.20;79.70;;;;;;4986540;28;20789;-75
2022/11/23 02:32:42;;;;;;;2.75;1.90;;;21.30;79.30;;;;;;4990463;28;20460;-75
2022/11/23 02:35:10;;;;;;;2.90;1.83;;;21.40;79.10;;;;;;5004238;28;20192;-75
2022/11/23 02:37:37;;;;;;;1.70;1.30;;;21.30;79.10;;;;;;4989058;28;20460;-73
2022/11/23 02:40:14;;;;;;;3.35;1.85;;;21.30;79.20;;;;;;4986505;28;20467;-73
2022/11/23 02:42:41;;;;;;;2.10;1.73;;;21.20;79.30;;;;;;4989300;28;20208;-74
2022/11/23 02:45:20;;;;;;;2.85;2.03;;;21.20;79.50;;;;;;4995121;28;20197;-74
2022/11/23 02:47:48;;;;;;;1.90;1.58;;;21.10;79.60;;;;;;4992280;28;20884;-75
2022/11/23 02:50:14;;;;;;;2.13;1.63;;;21.10;79.70;;;;;;5003833;28;20228;-74
2022/11/23 02:52:41;;;;;;;2.05;1.50;;;21.00;79.60;;;;;;4992064;28;20224;-73
2022/11/23 02:55:09;;;;;;;2.83;1.70;;;21.00;79.90;;;;;;4990571;28;20205;-74
2022/11/23 02:57:36;;;;;;;2.20;1.75;;;21.10;79.80;;;;;;4987245;28;20207;-72
2022/11/23 03:00:03;;;;;;;2.73;1.73;;;21.20;79.40;;;;;;4991128;28;20198;-74
2022/11/23 03:02:31;;;;;;;1.80;1.57;;;21.30;79.40;;;;;;4996477;28;20501;-73
2022/11/23 03:05:00;;;;;;;1.92;1.50;;;21.20;79.30;;;;;;5011894;28;20506;-74
2022/11/23 03:07:27;;;;;;;2.60;2.05;;;21.20;79.30;;;;;;4989427;28;20711;-75
2022/11/23 03:09:54;;;;;;;2.58;1.80;;;21.10;79.50;;;;;;4988902;28;20652;-75
2022/11/23 03:12:21;;;;;;;2.20;1.60;;;21.10;79.70;;;;;;4990093;28;20200;-75
2022/11/23 03:14:48;;;;;;;1.90;1.40;;;21.00;79.60;;;;;;4998622;28;20579;-75
2022/11/23 03:17:15;;;;;;;2.88;1.70;;;21.00;79.80;;;;;;4994236;28;20197;-75
2022/11/23 03:19:43;;;;;;;3.05;1.60;;;21.00;79.90;;;;;;4991536;28;20563;-75
2022/11/23 03:22:10;;;;;;;2.20;1.55;;;21.00;80.10;;;;;;4994795;28;20208;-75
2022/11/23 03:24:36;;;;;;;4.13;1.75;;;21.00;80.00;;;;;;4987975;28;20652;-75
2022/11/23 03:27:03;;;;;;;2.75;1.90;;;21.10;79.70;;;;;;4994307;28;20689;-75
2022/11/23 03:29:30;;;;;;;2.63;2.13;;;21.20;79.60;;;;;;4998087;28;20210;-75
2022/11/23 03:31:57;;;;;;;1.98;1.63;;;21.10;79.50;;;;;;4987184;28;20204;-75
2022/11/23 03:34:23;;;;;;;1.95;1.75;;;21.10;79.60;;;;;;4990537;28;20204;-74
2022/11/23 03:36:51;;;;;;;1.55;1.35;;;21.00;79.60;;;;;;5001930;28;20211;-75
2022/11/23 03:39:18;;;;;;;1.80;1.60;;;21.00;79.90;;;;;;4990409;28;20197;-75
2022/11/23 03:41:45;;;;;;;2.78;1.90;;;21.00;79.90;;;;;;5003577;28;20418;-75
2022/11/23 03:44:12;;;;;;;1.73;1.30;;;20.90;80.00;;;;;;5005382;28;20283;-75
2022/11/23 03:46:39;;;;;;;2.08;1.40;;;20.90;80.10;;;;;;4994460;28;20316;-73
2022/11/23 03:49:06;;;;;;;1.75;1.33;;;20.80;80.30;;;;;;5008823;28;20676;-73
2022/11/23 03:51:32;;;;;;;1.75;1.65;;;20.90;80.50;;;;;;4996625;28;20201;-74
2022/11/23 03:54:00;;;;;;;1.70;1.25;;;21.00;80.10;;;;;;5002722;28;20718;-73
2022/11/23 03:56:27;;;;;;;2.03;1.60;;;21.00;79.80;;;;;;4997553;28;20683;-73
2022/11/23 03:58:54;;;;;;;2.88;1.95;;;21.00;79.70;;;;;;4986011;28;20197;-73
2022/11/23 04:01:21;;;;;;;1.42;1.20;;;21.00;79.80;;;;;;4983218;28;20201;-73
2022/11/23 04:03:47;;;;;;;1.50;1.38;;;21.00;80.00;;;;;;4989355;28;20204;-72
2022/11/23 04:06:14;;;;;;;2.03;1.58;;;20.90;80.00;;;;;;5001537;28;20221;-74
2022/11/23 04:08:41;;;;;;;1.75;1.23;;;20.90;80.20;;;;;;4990541;28;20228;-73
2022/11/23 04:11:09;;;;;;;2.03;1.30;;;20.80;80.20;;;;;;4993790;28;20201;-72
2022/11/23 04:13:36;;;;;;;2.60;1.80;;;20.80;80.40;;;;;;4994064;28;20201;-73
2022/11/23 04:16:03;;;;;;;1.45;1.20;;;20.80;80.50;;;;;;4990111;28;20235;-72
2022/11/23 04:18:30;;;;;;;2.80;1.40;;;20.70;80.50;;;;;;4999660;28;20204;-73
2022/11/23 04:20:56;;;;;;;2.05;1.17;;;20.70;80.50;;;;;;4994178;28;20648;-74
2022/11/23 04:23:23;;;;;;;1.77;1.30;;;20.70;80.40;;;;;;4997403;28;20636;-73
2022/11/23 04:25:50;;;;;;;1.52;1.20;;;20.70;80.50;;;;;;4992878;28;20652;-74
2022/11/23 04:28:18;;;;;;;1.60;1.10;;;20.70;80.50;;;;;;4995052;28;20204;-73
2022/11/23 04:30:44;;;;;;;1.70;1.20;;;20.70;80.50;;;;;;4997611;28;20644;-73
2022/11/23 04:33:11;;;;;;;1.98;1.48;;;20.70;80.40;;;;;;4991141;28;20204;-73
2022/11/23 04:35:38;;;;;;;2.05;1.30;;;20.70;80.60;;;;;;5009896;28;20331;-73
2022/11/23 04:38:05;;;;;;;1.77;1.40;;;20.70;81.10;;;;;;4996258;28;20204;-74
2022/11/23 04:40:31;;;;;;;1.33;1.20;;;20.70;81.30;;;;;;4990308;28;20251;-72
2022/11/23 04:42:58;;;;;;;1.73;1.42;;;20.90;80.70;;;;;;4994707;28;20208;-72
2022/11/23 04:45:26;;;;;;;2.22;1.50;;;21.10;80.10;;;;;;5000422;28;20202;-75
2022/11/23 04:47:53;;;;;;;2.73;1.30;;;21.20;79.70;;;;;;4984260;28;20595;-73
2022/11/23 04:50:19;;;;;;;1.40;1.20;;;21.40;79.50;;;;;;4988158;28;20483;-72
2022/11/23 04:52:46;;;;;;;2.70;2.30;;;21.40;79.10;;;;;;4995210;28;20460;-73
2022/11/23 04:55:13;;;;;;;2.23;1.50;;;21.40;79.00;;;;;;4999098;28;20460;-73
2022/11/23 04:57:39;;;;;;;1.40;1.10;;;21.50;78.90;;;;;;4991929;28;20483;-73
2022/11/23 05:00:07;;;;;;;1.90;1.30;;;21.50;78.70;;;;;;4997117;28;20455;-75
2022/11/23 05:02:35;;;;;;;1.20;1.10;;;21.60;78.50;;;;;;4989093;28;20468;-73
2022/11/23 05:05:02;;;;;;;1.50;1.30;;;21.70;78.30;;;;;;4995460;28;20471;-72
2022/11/23 05:07:29;;;;;;;1.60;1.10;;;21.70;78.30;;;;;;4993650;28;20480;-73
2022/11/23 05:09:55;;;;;;;1.60;1.20;;;21.70;78.10;;;;;;4995790;28;20835;-73
2022/11/23 05:12:22;;;;;;;1.97;1.10;;;21.80;77.90;;;;;;5001071;28;20443;-73
2022/11/23 05:14:49;;;;;;;1.57;1.13;;;21.80;77.70;;;;;;4999920;28;20521;-74
2022/11/23 05:17:15;;;;;;;1.30;1.20;;;21.80;77.80;;;;;;5000778;28;20448;-72
2022/11/23 05:19:44;;;;;;;1.60;1.20;;;21.90;77.60;;;;;;4989642;28;20460;-73
2022/11/23 05:22:11;;;;;;;1.50;1.10;;;22.00;77.40;;;;;;4992403;28;20482;-73
2022/11/23 05:24:37;;;;;;;1.43;1.20;;;22.00;77.10;;;;;;4987966;28;20468;-73
2022/11/23 05:27:04;;;;;;;1.90;1.60;;;22.00;77.10;;;;;;4992356;28;20479;-73
2022/11/23 05:29:31;;;;;;;1.87;1.40;;;21.90;77.10;;;;;;5007794;28;20802;-73
2022/11/23 05:31:58;;;;;;;2.27;1.10;;;21.90;77.10;;;;;;4995953;28;20468;-73
2022/11/23 05:34:24;;;;;;;1.53;1.00;;;22.00;77.30;;;;;;4990098;28;20467;-73
2022/11/23 05:36:52;;;;;;;1.50;1.20;;;22.10;77.00;;;;;;4994485;28;20954;-74
2022/11/23 05:39:19;;;;;;;1.10;1.00;;;22.20;76.70;;;;;;5001479;28;20455;-73
2022/11/23 05:41:46;;;;;;;1.57;1.10;;;22.20;76.60;;;;;;4992889;28;20892;-73
2022/11/23 05:44:13;;;;;;;1.60;1.20;;;22.20;76.50;;;;;;5001044;28;20961;-73
2022/11/23 05:46:39;;;;;;;1.37;1.10;;;22.20;76.40;;;;;;4990332;28;20477;-72
2022/11/23 05:49:06;;;;;;;1.10;1.00;;;22.30;76.20;;;;;;5006282;28;20449;-74
2022/11/23 05:51:33;;;;;;;1.53;1.13;;;22.30;76.00;;;;;;4994364;28;20483;-72
2022/11/23 05:54:01;;;;;;;1.90;1.17;;;22.30;75.90;;;;;;4982955;28;20471;-73
2022/11/23 05:56:28;;;;;;;1.20;0.90;;;22.30;75.90;;;;;;4991557;28;20471;-75
2022/11/23 05:58:55;;;;;;;1.20;1.00;;;22.30;75.80;;;;;;4990198;28;20452;-73
2022/11/23 06:01:22;;;;;;;1.60;1.33;;;22.30;75.90;;;;;;4996423;28;20998;-75
2022/11/23 06:03:49;;;;;;;1.40;1.10;;;22.40;75.90;;;;;;5002980;28;20447;-73
2022/11/23 06:06:16;;;;;;;1.23;1.03;;;22.50;75.70;;;;;;4989751;28;20460;-73
2022/11/23 06:08:43;;;;;;;1.50;1.37;;;22.50;75.30;;;;;;4989734;28;20468;-73
2022/11/23 06:11:11;;;;;;;1.40;1.03;;;22.50;75.30;;;;;;4996312;28;20456;-73
2022/11/23 06:13:37;;;;;;;1.53;1.00;;;22.60;75.30;;;;;;5001658;28;20464;-73
2022/11/23 06:16:05;;;;;;;1.60;1.17;;;22.60;75.10;;;;;;4994810;28;20858;-74
2022/11/23 06:18:31;;;;;;;1.53;1.17;;;22.70;74.90;;;;;;4998364;28;20947;-73
2022/11/23 06:20:59;;;;;;;2.77;1.20;;;22.70;74.80;;;;;;4996717;28;20939;-73
2022/11/23 06:23:27;;;;;;;1.70;1.43;;;22.70;74.70;;;;;;4992649;28;20469;-73
2022/11/23 06:25:54;;;;;;;1.43;1.20;;;22.80;74.70;;;;;;4988174;28;20975;-73
2022/11/23 06:28:23;;;;;;;1.70;1.20;;;22.80;74.40;;;;;;4998199;28;20510;-73
2022/11/23 06:30:50;;;;;;;1.73;1.33;;;22.90;74.30;;;;;;5001826;28;20462;-72
2022/11/23 06:33:16;;;;;;;1.50;1.10;;;22.90;74.20;;;;;;4994432;28;20464;-74
2022/11/23 06:35:51;;;;;;;1.27;1.13;;;22.90;74.20;;;;;;4990219;28;20464;-73
2022/11/23 06:38:18;;;;;;;1.60;0.87;;;22.90;74.10;;;;;;4988522;28;20514;-73
2022/11/23 06:40:46;;;;;;;1.83;1.17;;;23.00;73.90;;;;;;4989280;28;20440;-74
2022/11/23 06:43:12;;;;;;;1.30;0.90;;;23.00;73.60;;;;;;4998107;28;21266;-72
2022/11/23 06:45:40;;;;;;;1.20;1.00;;;23.00;73.60;;;;;;4994404;28;20547;-73
2022/11/23 06:48:07;;;;;;;1.50;0.97;;;23.10;73.70;;;;;;4992340;28;20488;-73
2022/11/23 06:50:34;;;;;;;1.77;1.53;;;23.10;73.50;;;;;;4990718;28;20947;-73
2022/11/23 06:53:01;;;;;;;1.33;0.90;;;23.20;73.40;;;;;;4987703;28;20464;-74
2022/11/23 06:55:28;;;;;;;1.40;1.00;;;23.20;73.40;;;;;;4995969;28;20460;-73
2022/11/23 06:57:56;;;;;;;2.13;1.30;;;23.20;73.20;;;;;;4998414;28;20478;-73
2022/11/23 07:00:23;;;;;;;2.30;1.20;;;23.30;73.10;;;;;;4987522;28;20464;-75
2022/11/23 07:02:55;;;;;;;1.40;1.10;;;23.30;72.90;;;;;;5004308;28;20454;-74
2022/11/23 07:05:22;;;;;;;1.20;1.10;;;23.30;72.90;;;;;;5002561;28;20479;-74
2022/11/23 07:07:49;;;;;;;1.40;1.03;;;23.40;72.90;;;;;;4993206;28;20486;-75
2022/11/23 07:10:17;;;;;;;1.63;1.10;;;23.40;72.70;;;;;;4990213;28;20543;-74
2022/11/23 07:12:44;;;;;;;1.17;0.87;;;23.40;72.50;;;;;;4994924;28;20460;-73
2022/11/23 07:15:11;;;;;;;1.07;0.80;;;23.40;72.50;;;;;;4993394;28;20491;-73
2022/11/23 07:17:43;;;;;;;1.20;1.10;;;23.40;72.50;;;;;;4997854;28;20455;-76
2022/11/23 07:20:12;;;;;;;1.73;1.63;;;23.50;72.50;;;;;;5003134;28;20462;-74
2022/11/23 07:22:40;;;;;;;1.20;0.80;;;23.50;72.20;;;;;;4992121;28;20990;-75
2022/11/23 07:25:07;;;;;;;1.30;1.00;;;23.50;72.10;;;;;;4988713;28;20459;-73
2022/11/23 07:27:34;;;;;;;1.30;1.07;;;23.50;72.10;;;;;;4991899;28;20480;-74
2022/11/23 07:30:00;;;;;;;1.50;1.10;;;23.60;72.10;;;;;;5002967;28;20468;-74
2022/11/23 07:32:27;;;;;;;1.43;1.10;;;23.60;72.00;;;;;;4987929;28;20464;-75
2022/11/23 07:34:54;;;;;;;1.00;0.80;;;23.70;71.80;;;;;;4980507;28;20472;-74
2022/11/23 07:37:22;;;;;;;2.07;0.83;;;23.70;71.70;;;;;;4998664;28;20463;-73
2022/11/23 07:39:51;;;;;;;1.20;1.00;;;23.70;71.50;;;;;;4990048;28;20459;-75
2022/11/23 07:42:18;;;;;;;1.23;0.80;;;23.70;71.50;;;;;;4998168;28;20460;-74
2022/11/23 07:44:45;;;;;;;1.13;0.90;;;23.80;71.60;;;;;;4998942;28;20827;-74
2022/11/23 07:47:11;;;;;;;1.50;1.10;;;23.80;71.40;;;;;;4994764;28;20494;-74
2022/11/23 07:49:39;;;;;;;2.23;0.80;;;23.80;71.20;;;;;;4984643;28;20464;-75
2022/11/23 07:52:06;;;;;;;1.43;1.10;;;23.80;71.10;;;;;;5001380;28;20466;-75
2022/11/23 07:54:34;;;;;;;1.70;1.10;;;23.80;71.00;;;;;;4996962;28;20470;-74
2022/11/23 07:57:01;;;;;;;1.63;0.90;;;23.90;71.10;;;;;;4989939;28;20886;-74
2022/11/23 07:59:28;;;;;;;1.30;1.10;;;23.90;71.80;;;;;;4984728;28;20460;-74
2022/11/23 08:01:55;;;;;;;1.20;0.90;;;23.90;70.90;;;;;;4984628;28;20520;-76
2022/11/23 08:04:21;;;;;;;1.30;0.80;;;23.90;70.70;;;;;;4994173;28;20440;-75
2022/11/23 08:06:48;;;;;;;1.87;1.00;;;24.00;70.70;;;;;;4983528;28;20466;-74
2022/11/23 08:09:15;;;;;;;1.20;0.90;;;24.00;70.60;;;;;;4987285;28;20488;-76
2022/11/23 08:11:43;;;;;;;1.00;0.80;;;24.00;70.60;;;;;;4989506;28;20532;-75
2022/11/23 08:14:10;;;;;;;1.40;0.80;;;24.00;70.40;;;;;;4998192;28;20463;-75
2022/11/23 08:16:36;;;;;;;1.57;1.20;;;24.00;70.30;;;;;;4990558;28;20491;-74
2022/11/23 08:19:03;;;;;;;1.10;0.90;;;24.10;70.30;;;;;;4986959;28;20460;-74
2022/11/23 08:21:31;;;;;;;1.23;0.97;;;24.20;70.30;;;;;;4993010;28;20460;-74
2022/11/23 08:23:58;;;;;;;1.10;0.83;;;24.20;70.10;;;;;;5001528;28;20463;-74
2022/11/23 08:26:24;;;;;;;1.10;0.80;;;24.20;70.10;;;;;;4994895;28;20467;-75
2022/11/23 08:28:52;;;;;;;1.73;1.20;;;24.20;70.00;;;;;;5005394;28;20483;-74
2022/11/23 08:31:19;;;;;;;1.73;0.90;;;24.20;70.40;;;;;;4992714;28;20903;-76
2022/11/23 08:33:46;;;;;;;1.37;1.10;;;24.20;70.00;;;;;;4994660;28;20455;-74
2022/11/23 08:36:13;;;;;;;1.10;0.80;;;24.20;69.90;;;;;;4995001;28;20474;-74
2022/11/23 08:38:39;;;;;;;1.33;0.80;;;24.20;69.70;;;;;;4989968;28;21022;-74
2022/11/23 08:41:06;;;;;;;1.73;1.30;;;24.30;69.80;;;;;;4992251;28;20526;-74
2022/11/23 08:43:33;;;;;;;1.33;0.90;;;24.30;69.70;;;;;;5000351;28;20967;-72
2022/11/23 08:46:03;;;;;;;1.60;1.10;;;24.30;69.60;;;;;;5000402;28;20464;-72
2022/11/23 08:48:30;;;;;;;2.13;1.03;;;24.30;69.60;;;;;;4991332;28;20476;-75
2022/11/23 08:50:59;;;;;;;1.57;1.20;;;24.30;69.50;;;;;;4992661;28;20455;-75
2022/11/23 08:53:26;;;;;;;2.33;1.00;;;24.30;69.50;;;;;;4989711;28;20987;-76
2022/11/23 08:55:53;;;;;;;1.30;0.90;;;24.40;69.50;;;;;;4987089;28;20464;-76
2022/11/23 08:58:19;;;;;;;1.20;0.90;;;24.40;69.40;;;;;;4992899;28;20969;-77
2022/11/23 09:00:46;;;;;;;1.20;1.00;;;24.40;69.30;;;;;;5006241;28;20456;-77
2022/11/23 09:03:14;;;;;;;1.20;0.90;;;24.50;69.30;;;;;;4996546;28;20462;-76
2022/11/23 09:05:41;;;;;;;5.03;1.17;;;24.50;69.00;;;;;;5000769;28;20468;-75
2022/11/23 09:08:08;;;;;;;3.30;1.00;;;24.50;68.70;;;;;;4994568;28;20494;-75
2022/11/23 09:10:34;;;;;;;6.80;1.37;;;24.50;68.90;;;;;;4989905;28;20468;-76
2022/11/23 09:13:02;;;;;;;2.47;1.00;;;24.50;68.80;;;;;;5001575;28;20455;-75
2022/11/23 09:15:28;;;;;;;1.33;1.10;;;24.60;68.90;;;;;;4989773;28;20484;-76
2022/11/23 09:17:56;;;;;;;1.90;1.10;;;24.50;68.60;;;;;;5000484;28;20463;-76
2022/11/23 09:20:24;;;;;;;1.80;1.13;;;24.60;68.70;;;;;;4993107;28;20487;-75
2022/11/23 09:22:52;;;;;;;2.40;1.10;;;24.60;68.70;;;;;;4990685;28;20867;-76
2022/11/23 09:25:19;;;;;;;2.17;0.90;;;24.60;68.60;;;;;;4992720;28;20499;-76
2022/11/23 09:27:45;;;;;;;1.43;0.90;;;24.60;68.50;;;;;;4999221;28;20483;-75
2022/11/23 09:30:13;;;;;;;3.43;1.30;;;24.70;68.50;;;;;;4994246;28;20843;-74
2022/11/23 09:32:40;;;;;;;1.80;1.40;;;24.70;68.40;;;;;;4993330;28;20468;-75
2022/11/23 09:35:07;;;;;;;1.67;1.10;;;24.70;68.30;;;;;;4988426;28;20456;-75
2022/11/23 09:37:35;;;;;;;1.37;1.20;;;24.60;68.20;;;;;;4991084;28;20467;-75
2022/11/23 09:40:02;;;;;;;26.07;1.20;;;24.60;68.40;;;;;;4988184;28;20472;-75
2022/11/23 09:42:55;;;;;;;1.10;0.80;;;24.60;68.50;;;;;;5000138;28;20998;-76
2022/11/23 09:45:29;;;;;;;1.87;1.00;;;24.50;69.30;;;;;;4992291;28;20483;-76
2022/11/23 09:48:18;;;;;;;1.53;0.90;;;24.50;68.60;;;;;;4993895;28;20982;-76
2022/11/23 09:50:48;;;;;;;1.60;1.00;;;24.50;68.80;;;;;;4991662;28;20575;-76
2022/11/23 09:53:22;;;;;;;1.40;0.80;;;24.60;68.90;;;;;;4989634;28;20460;-76
2022/11/23 09:55:52;;;;;;;2.87;0.90;;;24.60;68.60;;;;;;4990593;28;20456;-77
2022/11/23 09:58:20;;;;;;;1.80;0.90;;;24.70;68.50;;;;;;4993583;28;20452;-76
2022/11/23 10:00:51;;;;;;;2.00;0.77;;;24.80;68.40;;;;;;4993694;28;21151;-76
2022/11/23 10:03:18;;;;;;;1.30;0.90;;;25.00;68.20;;;;;;4995151;28;20457;-77
2022/11/23 10:05:56;;;;;;;1.10;0.80;;;25.00;67.90;;;;;;4995990;28;20460;-76
2022/11/23 10:08:36;;;;;;;1.20;1.03;;;25.10;67.70;;;;;;4986309;28;20484;-77
2022/11/23 10:11:20;;;;;;;2.33;1.10;;;25.10;67.60;;;;;;4995249;28;20460;-76
2022/11/23 10:13:57;;;;;;;1.53;1.00;;;25.10;67.50;;;;;;5000777;28;20447;-76
2022/11/23 10:16:35;;;;;;;5.80;1.57;;;25.10;67.70;;;;;;4991336;28;20506;-78
2022/11/23 10:19:11;;;;;;;5.43;1.00;;;25.10;67.90;;;;;;4990392;28;20467;-84
2022/11/23 10:21:47;;;;;;;1.60;1.00;;;24.90;68.90;;;;;;4990921;28;20482;-83
2022/11/23 10:24:19;;;;;;;5.47;1.03;;;24.80;69.70;;;;;;4986143;28;20472;-83
2022/11/23 10:26:48;;;;;;;2.23;0.90;;;24.70;70.10;;;;;;5001049;28;20531;-82
2022/11/23 10:29:21;;;;;;;3.13;1.00;;;24.70;70.30;;;;;;4993650;28;20476;-83
2022/11/23 10:31:49;;;;;;;2.43;1.27;;;24.60;70.30;;;;;;4994978;28;20510;-83
2022/11/23 10:34:21;;;;;;;2.40;0.90;;;24.60;70.30;;;;;;4990527;28;20456;-83
2022/11/23 10:36:48;;;;;;;3.13;1.40;;;24.60;70.40;;;;;;4993659;28;20455;-81
2022/11/23 10:39:21;;;;;;;2.10;0.90;;;24.60;70.70;;;;;;4987657;28;20461;-83
2022/11/23 10:41:49;;;;;;;3.20;1.20;;;24.60;70.70;;;;;;4996252;28;20527;-82
2022/11/23 10:44:30;;;;;;;4.07;0.97;;;24.60;70.80;;;;;;4990391;28;20462;-83
2022/11/23 10:46:57;;;;;;;2.33;0.90;;;24.50;70.70;;;;;;4988991;28;20563;-82
2022/11/23 10:49:27;;;;;;;4.00;1.10;;;24.60;71.30;;;;;;4997777;28;20488;-83
2022/11/23 10:51:57;;;;;;;2.33;0.97;;;24.50;71.20;;;;;;4990443;28;20507;-82
2022/11/23 10:54:30;;;;;;;1.83;1.03;;;24.50;71.60;;;;;;4987444;28;20464;-84
2022/11/23 10:56:59;;;;;;;5.60;1.50;;;24.50;71.70;;;;;;4995792;28;20819;-84
2022/11/23 10:59:29;;;;;;;1.80;1.20;;;24.50;71.80;;;;;;4992142;28;20459;-83
2022/11/23 11:02:17;;;;;;;4.07;1.30;;;24.50;72.00;;;;;;4992566;28;20460;-84
2022/11/23 11:04:45;;;;;;;2.13;0.90;;;24.50;71.90;;;;;;5001726;28;20978;-83
2022/11/23 11:07:28;;;;;;;2.47;1.00;;;24.50;72.10;;;;;;4991853;28;21196;-84
2022/11/23 11:09:58;;;;;;;4.40;1.10;;;24.50;72.30;;;;;;4983118;28;20486;-83
2022/11/23 11:12:26;;;;;;;2.30;0.83;;;24.50;72.40;;;;;;4992646;28;20455;-83
2022/11/23 11:15:03;;;;;;;4.57;1.00;;;24.50;72.50;;;;;;4992510;28;20463;-84
2022/11/23 11:17:32;;;;;;;1.70;1.13;;;24.50;72.60;;;;;;4998030;28;20448;-83
2022/11/23 11:19:59;;;;;;;1.80;1.40;;;24.50;72.70;;;;;;4992594;28;20464;-84
2022/11/23 11:22:29;;;;;;;1.20;1.00;;;24.50;72.60;;;;;;4992849;28;20831;-82
2022/11/23 11:24:57;;;;;;;4.30;0.93;;;24.50;72.90;;;;;;4987065;28;20464;-83
2022/11/23 11:27:26;;;;;;;1.67;0.97;;;24.50;73.30;;;;;;4995642;28;20808;-82
2022/11/23 11:29:56;;;;;;;4.87;1.17;;;24.50;73.30;;;;;;4999772;28;20476;-83
2022/11/23 11:32:29;;;;;;;2.43;1.20;;;24.50;73.40;;;;;;4998406;28;20479;-81
2022/11/23 11:35:02;;;;;;;1.67;1.13;;;24.50;73.00;;;;;;4981596;28;20490;-82
2022/11/23 11:37:34;;;;;;;1.70;1.20;;;24.50;73.30;;;;;;4984604;28;20474;-83
2022/11/23 11:40:09;;;;;;;2.37;1.30;;;24.50;73.40;;;;;;4986894;28;20460;-82
2022/11/23 11:42:40;;;;;;;1.63;1.27;;;24.50;73.40;;;;;;5006398;28;20498;-82
2022/11/23 11:45:16;;;;;;;3.23;0.97;;;24.50;73.40;;;;;;4991091;28;20448;-82
2022/11/23 11:47:49;;;;;;;2.23;1.10;;;24.50;73.50;;;;;;5003504;28;20463;-81
2022/11/23 11:50:22;;;;;;;2.43;0.87;;;24.50;73.00;;;;;;4990282;28;20480;-82
2022/11/23 11:52:54;;;;;;;1.50;0.93;;;24.50;73.30;;;;;;4988845;28;20560;-82
2022/11/23 11:55:30;;;;;;;1.87;1.43;;;24.50;73.40;;;;;;4995840;28;20460;-82
2022/11/23 11:58:03;;;;;;;2.73;0.97;;;24.50;73.50;;;;;;4985976;28;20459;-81
2022/11/23 12:00:33;;;;;;;3.87;1.07;;;24.40;73.50;;;;;;4988729;28;20464;-82
2022/11/23 12:03:08;;;;;;;1.40;1.00;;;24.50;73.40;;;;;;4991511;28;20509;-82
2022/11/23 12:05:41;;;;;;;1.47;0.90;;;24.50;74.40;;;;;;4994459;28;20458;-81
2022/11/23 12:08:13;;;;;;;1.30;0.90;;;24.50;73.50;;;;;;4986485;28;20560;-82
2022/11/23 12:10:46;;;;;;;2.60;0.93;;;24.50;73.60;;;;;;4995639;28;20460;-81
2022/11/23 12:13:16;;;;;;;1.50;1.00;;;24.40;73.50;;;;;;4997905;28;20458;-81
2022/11/23 12:15:46;;;;;;;3.17;0.90;;;24.40;73.70;;;;;;4996657;28;20560;-81
2022/11/23 12:18:42;;;;;;;1.90;1.20;;;24.40;73.80;;;;;;4987689;28;20954;-81
2022/11/23 12:21:30;;;;;;;1.10;0.90;;;24.40;74.00;;;;;;4986863;28;20469;-81
2022/11/23 12:24:10;;;;;;;2.10;1.30;;;24.40;74.00;;;;;;4993277;28;20942;-80
2022/11/23 12:26:49;;;;;;;1.70;1.20;;;24.40;73.60;;;;;;4991185;28;20965;-82
2022/11/23 12:29:36;;;;;;;1.93;0.87;;;24.40;74.00;;;;;;4987556;28;20475;-82
2022/11/23 12:32:12;;;;;;;1.20;0.87;;;24.40;74.40;;;;;;4995302;28;20547;-83
2022/11/23 12:35:01;;;;;;;1.10;0.80;;;24.30;74.30;;;;;;5004666;28;20946;-81
2022/11/23 12:37:48;;;;;;;2.40;0.83;;;24.30;74.40;;;;;;4994838;28;20963;-82
2022/11/23 12:40:32;;;;;;;2.80;1.10;;;24.30;74.50;;;;;;4989299;28;20459;-82
2022/11/23 12:43:08;;;;;;;1.67;0.90;;;24.30;74.50;;;;;;4995823;28;20463;-81
2022/11/23 12:46:02;;;;;;;1.00;0.77;;;24.30;74.40;;;;;;4994282;28;20455;-81
2022/11/23 12:48:49;;;;;;;1.80;1.00;;;24.30;74.60;;;;;;4989644;28;20466;-81
2022/11/23 12:51:27;;;;;;;1.30;1.00;;;24.30;74.50;;;;;;4991406;28;20445;-81
2022/11/23 12:54:07;;;;;;;1.10;0.90;;;24.30;74.00;;;;;;4985100;28;20965;-80
2022/11/23 12:56:54;;;;;;;1.17;0.90;;;24.30;74.30;;;;;;4999314;28;20480;-81
2022/11/23 12:59:25;;;;;;;1.63;1.10;;;24.20;74.60;;;;;;4988732;28;20459;-80